Eyemouth, United Kingdom
Current Conditions -  °F | °C
As of 8:50 AM on Thursday 27 Nov 2014 (Local Time) from EGQM Reporting Station
Haze Haze  
Wind Chill: 48°   Ceiling: 3200
Heat Index: 48°   Visibility: 6mi
Dew Point: 48°   Wind: 3mph
Humidity: 100%   Direction: 80°E
Pressure: 29.65"   Gusts: NA
Location:  55.87°N, 2.09°W
Report Text: EGQM 270850Z AUTO 08003KT 9000 BR SCT021/// BKN032/// 09/09 Q1004
Loading
Personal Weather Stations






























Interactive Weather Map New forecast layout! Learn more

10-Day Weather Forecast

Advertisements
Track Severe Weather on mobile